Time;durP1;ratioP1;P1;durP2;ratioP2;P2;SDS_P1;SDS_P2;PMS_P1;PMS_P2;Temp;Humidity;BMP_temperature;BMP_pressure;BME280_temperature;BME280_humidity;BME280_pressure;Samples;Min_cycle;Max_cycle;Signal;HPM_P1;HPM_P2
2022/03/14 00:01:55;;;;;;;15.77;9.70;;;2.90;98.70;;;;;;4978651;28;20249;-82
2022/03/14 00:04:21;;;;;;;17.40;9.30;;;3.00;98.80;;;;;;4980084;28;20181;-82
2022/03/14 00:06:48;;;;;;;14.97;9.07;;;3.00;99.00;;;;;;4980042;28;20350;-82
2022/03/14 00:09:15;;;;;;;17.60;10.27;;;2.90;99.30;;;;;;4980210;28;20191;-82
2022/03/14 00:11:40;;;;;;;16.47;9.33;;;3.00;99.80;;;;;;4978931;28;20423;-82
2022/03/14 00:14:07;;;;;;;18.13;10.53;;;3.00;99.90;;;;;;4979454;28;20177;-81
2022/03/14 00:16:36;;;;;;;19.33;10.40;;;3.00;99.90;;;;;;4980405;28;20192;-82
2022/03/14 00:19:02;;;;;;;14.67;8.57;;;3.20;99.90;;;;;;4978666;28;20526;-82
2022/03/14 00:21:29;;;;;;;14.83;9.53;;;3.10;99.60;;;;;;4979373;28;20179;-82
2022/03/14 00:23:57;;;;;;;17.13;10.40;;;3.20;99.40;;;;;;4978232;28;20260;-81
2022/03/14 00:26:24;;;;;;;15.13;9.37;;;3.30;99.10;;;;;;4979111;28;20204;-81
2022/03/14 00:28:50;;;;;;;19.40;10.27;;;3.40;98.90;;;;;;4978085;28;20187;-81
2022/03/14 00:31:16;;;;;;;18.80;10.70;;;3.30;99.10;;;;;;4977842;28;20175;-81
2022/03/14 00:33:42;;;;;;;18.97;11.07;;;3.40;99.20;;;;;;4978631;28;20176;-81
2022/03/14 00:36:08;;;;;;;18.37;10.43;;;3.50;99.30;;;;;;4978833;28;20550;-81
2022/03/14 00:38:38;;;;;;;18.07;10.43;;;3.60;99.40;;;;;;4979060;28;20177;-81
2022/03/14 00:41:05;;;;;;;14.50;8.93;;;3.80;99.10;;;;;;4979038;28;20220;-80
2022/03/14 00:43:31;;;;;;;17.27;9.90;;;3.80;98.80;;;;;;4977266;28;20177;-81
2022/03/14 00:45:57;;;;;;;18.17;9.93;;;3.90;98.30;;;;;;4976598;28;20232;-81
2022/03/14 00:48:24;;;;;;;19.17;10.43;;;3.80;98.50;;;;;;4977830;28;20646;-81
2022/03/14 00:50:50;;;;;;;19.17;11.13;;;3.90;98.30;;;;;;4977057;28;20181;-81
2022/03/14 00:53:16;;;;;;;15.97;9.37;;;3.90;98.10;;;;;;4978364;28;20233;-80
2022/03/14 00:55:42;;;;;;;17.40;10.37;;;3.90;97.70;;;;;;4977516;28;20217;-81
2022/03/14 00:58:07;;;;;;;16.37;9.87;;;4.00;97.80;;;;;;4978808;28;20181;-81
2022/03/14 01:00:33;;;;;;;16.13;9.73;;;4.00;97.80;;;;;;4977834;28;20181;-81
2022/03/14 01:02:59;;;;;;;15.93;10.17;;;4.00;97.90;;;;;;4978041;28;20269;-80
2022/03/14 01:05:26;;;;;;;15.30;9.53;;;4.00;98.00;;;;;;4978970;28;20228;-80
2022/03/14 01:07:51;;;;;;;14.83;8.83;;;4.10;97.80;;;;;;4978128;28;20174;-81
2022/03/14 01:10:17;;;;;;;16.43;9.80;;;4.10;97.70;;;;;;4977690;28;20248;-81
2022/03/14 01:12:43;;;;;;;14.43;9.40;;;4.10;97.50;;;;;;4978491;28;20296;-81
2022/03/14 01:15:09;;;;;;;15.43;9.13;;;4.20;97.30;;;;;;4977838;28;20198;-81
2022/03/14 01:17:36;;;;;;;15.33;9.50;;;4.20;97.30;;;;;;4977949;28;20666;-81
2022/03/14 01:20:05;;;;;;;15.90;9.17;;;4.30;97.10;;;;;;4981075;28;20172;-81
2022/03/14 01:22:31;;;;;;;18.27;10.97;;;4.30;96.90;;;;;;4981327;28;20631;-81
2022/03/14 01:24:57;;;;;;;16.13;9.17;;;4.30;96.70;;;;;;4983003;28;20313;-81
2022/03/14 01:27:22;;;;;;;14.13;8.70;;;4.40;96.60;;;;;;4982106;28;20217;-81
2022/03/14 01:29:48;;;;;;;14.17;8.83;;;4.40;96.40;;;;;;4983210;28;20176;-80
2022/03/14 01:32:14;;;;;;;11.33;7.60;;;4.50;96.10;;;;;;4981756;28;20178;-81
2022/03/14 01:34:39;;;;;;;13.30;8.57;;;4.70;95.60;;;;;;4982355;28;20197;-81
2022/03/14 01:37:05;;;;;;;10.93;7.80;;;4.70;95.10;;;;;;4981182;28;20184;-81
2022/03/14 01:39:31;;;;;;;11.70;7.57;;;4.80;94.60;;;;;;4980513;28;20184;-81
2022/03/14 01:41:57;;;;;;;11.20;7.60;;;4.90;94.70;;;;;;4980305;28;20243;-81
2022/03/14 01:44:23;;;;;;;14.53;7.63;;;5.00;94.00;;;;;;4979894;28;20206;-81
2022/03/14 01:46:49;;;;;;;16.67;7.53;;;5.10;93.80;;;;;;4980517;28;20215;-81
2022/03/14 01:49:15;;;;;;;12.03;8.03;;;5.20;93.50;;;;;;4981561;28;20193;-81
2022/03/14 01:51:41;;;;;;;12.87;7.60;;;5.20;93.30;;;;;;4981357;28;20175;-81
2022/03/14 01:54:11;;;;;;;10.73;6.60;;;5.30;93.00;;;;;;4979692;28;20197;-81
2022/03/14 01:56:39;;;;;;;5.00;3.33;;;5.30;92.60;;;;;;4979250;28;20186;-80
2022/03/14 01:59:06;;;;;;;8.70;5.43;;;5.90;91.90;;;;;;4980444;28;20238;-81
2022/03/14 02:01:34;;;;;;;9.57;5.20;;;6.90;91.00;;;;;;4980357;28;20209;-81
2022/03/14 02:04:00;;;;;;;12.00;6.13;;;7.30;91.00;;;;;;4980251;28;20183;-82
2022/03/14 02:06:29;;;;;;;15.13;6.27;;;7.70;91.70;;;;;;4979953;28;20241;-83
2022/03/14 02:08:55;;;;;;;11.93;6.80;;;7.80;92.40;;;;;;4980655;28;20183;-83
2022/03/14 02:11:21;;;;;;;12.20;6.53;;;7.90;93.00;;;;;;4980448;28;20178;-81
2022/03/14 02:13:47;;;;;;;12.03;7.43;;;7.90;93.50;;;;;;4982294;28;20202;-82
2022/03/14 02:16:13;;;;;;;10.93;6.63;;;7.90;94.40;;;;;;4982109;28;20210;-82
2022/03/14 02:18:39;;;;;;;13.00;6.67;;;7.90;95.90;;;;;;4980281;28;20186;-82
2022/03/14 02:21:08;;;;;;;15.73;8.20;;;7.90;96.80;;;;;;4982105;28;20189;-82
2022/03/14 02:23:34;;;;;;;13.93;8.80;;;7.80;97.80;;;;;;4980269;28;20207;-84
2022/03/14 02:26:00;;;;;;;13.63;8.03;;;7.80;99.30;;;;;;4982018;28;20209;-81
2022/03/14 02:28:27;;;;;;;13.03;8.50;;;7.70;99.90;;;;;;4982022;28;20201;-81
2022/03/14 02:30:53;;;;;;;15.57;9.53;;;7.70;99.90;;;;;;4981363;28;20265;-81
2022/03/14 02:33:19;;;;;;;15.00;10.10;;;7.60;99.90;;;;;;4979756;28;20186;-83
2022/03/14 02:35:46;;;;;;;14.77;8.87;;;7.60;99.90;;;;;;4979787;28;20215;-82
2022/03/14 02:38:17;;;;;;;15.77;9.50;;;7.60;99.90;;;;;;4979201;28;20194;-82
2022/03/14 02:40:46;;;;;;;16.83;10.00;;;7.60;99.90;;;;;;4979386;28;20186;-81
2022/03/14 02:43:15;;;;;;;14.43;8.77;;;7.60;99.90;;;;;;4980734;28;20716;-81
2022/03/14 02:45:41;;;;;;;10.53;7.53;;;7.50;99.90;;;;;;4982073;28;20200;-81
2022/03/14 02:48:07;;;;;;;13.30;8.93;;;7.40;99.90;;;;;;4980296;28;20259;-81
2022/03/14 02:50:34;;;;;;;11.67;7.60;;;7.40;99.90;;;;;;4980441;28;20205;-82
2022/03/14 02:53:00;;;;;;;13.13;8.50;;;7.30;99.90;;;;;;4978728;28;20190;-82
2022/03/14 02:55:26;;;;;;;15.37;9.37;;;7.20;99.90;;;;;;4979177;28;20214;-83
2022/03/14 02:57:52;;;;;;;15.97;9.63;;;7.30;99.90;;;;;;4979215;28;20183;-81
2022/03/14 03:00:18;;;;;;;12.07;8.47;;;7.10;99.90;;;;;;4979451;28;20183;-81
2022/03/14 03:02:43;;;;;;;9.97;7.17;;;7.10;99.90;;;;;;4979098;28;20263;-81
2022/03/14 03:05:09;;;;;;;9.20;6.67;;;7.10;99.90;;;;;;4978698;28;20195;-82
2022/03/14 03:07:36;;;;;;;8.87;5.77;;;7.10;99.90;;;;;;4980016;28;20180;-83
2022/03/14 03:10:04;;;;;;;11.13;7.80;;;7.00;99.90;;;;;;4980590;28;20248;-81
2022/03/14 03:12:32;;;;;;;9.13;6.43;;;7.00;99.90;;;;;;4980217;28;20171;-81
2022/03/14 03:14:58;;;;;;;10.80;7.43;;;7.00;99.90;;;;;;4980131;28;20563;-81
2022/03/14 03:17:24;;;;;;;11.37;7.17;;;6.90;99.90;;;;;;4978688;28;20707;-83
2022/03/14 03:19:50;;;;;;;12.50;7.40;;;6.90;99.90;;;;;;4980048;28;20265;-81
2022/03/14 03:22:16;;;;;;;11.67;8.03;;;6.90;99.90;;;;;;4979517;28;20225;-83
2022/03/14 03:24:42;;;;;;;8.47;6.30;;;6.90;99.90;;;;;;4979951;28;20199;-81
2022/03/14 03:27:08;;;;;;;9.67;6.40;;;6.90;99.90;;;;;;4978979;28;20328;-84
2022/03/14 03:29:36;;;;;;;8.53;6.27;;;6.80;99.90;;;;;;4979071;28;20535;-81
2022/03/14 03:32:02;;;;;;;10.90;6.63;;;6.80;99.90;;;;;;4980912;28;20162;-84
2022/03/14 03:34:28;;;;;;;8.77;6.23;;;6.80;99.90;;;;;;4978860;28;20233;-83
2022/03/14 03:36:54;;;;;;;8.83;7.20;;;6.80;99.90;;;;;;4981226;28;20180;-84
2022/03/14 03:39:19;;;;;;;8.17;6.13;;;6.70;99.90;;;;;;4978991;28;20190;-81
2022/03/14 03:41:45;;;;;;;9.03;6.50;;;;;;;;;;4978876;28;20534;-82
2022/03/14 03:44:11;;;;;;;7.93;6.00;;;6.60;99.90;;;;;;4978820;28;20191;-84
2022/03/14 03:46:37;;;;;;;11.00;6.47;;;6.60;99.90;;;;;;4981295;28;20198;-84
2022/03/14 03:49:03;;;;;;;8.30;5.77;;;;;;;;;;4979641;28;20214;-82
2022/03/14 03:51:29;;;;;;;7.80;5.00;;;6.50;99.90;;;;;;4979189;28;20182;-84
2022/03/14 03:53:55;;;;;;;7.87;4.47;;;6.60;99.90;;;;;;4978907;28;20713;-80
2022/03/14 03:56:20;;;;;;;6.17;4.80;;;6.60;99.90;;;;;;4980425;28;20281;-84
2022/03/14 03:58:47;;;;;;;6.97;4.63;;;;;;;;;;4983647;28;20265;-81
2022/03/14 04:01:19;;;;;;;5.23;4.13;;;6.60;99.90;;;;;;4979360;28;20175;-81
2022/03/14 04:03:49;;;;;;;4.67;3.90;;;6.60;99.90;;;;;;4979531;28;20163;-82
2022/03/14 04:06:19;;;;;;;5.70;4.17;;;6.60;99.90;;;;;;4980021;28;20294;-82
2022/03/14 04:08:45;;;;;;;6.27;4.57;;;6.60;99.90;;;;;;4978544;28;20224;-81
2022/03/14 04:11:12;;;;;;;6.37;4.87;;;6.50;99.90;;;;;;4979294;28;20192;-84
2022/03/14 04:13:37;;;;;;;5.43;4.37;;;6.50;99.90;;;;;;4979967;28;20575;-81
2022/03/14 04:16:03;;;;;;;5.60;4.63;;;;;;;;;;4978499;28;20203;-81
2022/03/14 04:18:29;;;;;;;6.80;5.07;;;6.50;99.90;;;;;;4978284;28;20285;-81
2022/03/14 04:20:55;;;;;;;7.40;5.20;;;;;;;;;;4977790;28;20207;-81
2022/03/14 04:23:21;;;;;;;6.07;4.47;;;6.30;99.90;;;;;;4977558;28;20181;-82
2022/03/14 04:25:48;;;;;;;5.87;4.53;;;;;;;;;;4982749;28;20218;-81
2022/03/14 04:28:14;;;;;;;6.57;4.40;;;6.30;99.90;;;;;;4998348;28;20242;-81
2022/03/14 04:30:40;;;;;;;6.07;4.17;;;6.30;99.90;;;;;;4986407;28;20191;-81
2022/03/14 04:33:08;;;;;;;5.43;4.00;;;6.40;99.90;;;;;;4979013;28;20182;-81
2022/03/14 04:35:35;;;;;;;4.90;4.27;;;6.40;99.90;;;;;;4984739;28;20228;-81
2022/03/14 04:38:02;;;;;;;4.33;3.73;;;6.40;99.90;;;;;;4985038;28;20187;-82
2022/03/14 04:40:28;;;;;;;4.00;3.40;;;6.30;99.90;;;;;;4977476;28;20276;-81
2022/03/14 04:42:53;;;;;;;5.17;4.37;;;6.30;99.90;;;;;;4979785;28;20202;-81
2022/03/14 04:45:19;;;;;;;5.27;3.83;;;6.30;99.90;;;;;;4979113;28;20220;-81
2022/03/14 04:47:45;;;;;;;4.53;3.80;;;;;;;;;;4978456;28;20675;-81
2022/03/14 04:50:11;;;;;;;4.13;3.23;;;6.20;99.90;;;;;;4978357;28;20210;-81
2022/03/14 04:52:37;;;;;;;4.97;3.90;;;;;;;;;;4978277;28;20336;-81
2022/03/14 04:55:03;;;;;;;4.07;3.20;;;6.20;99.90;;;;;;4981813;28;20210;-81
2022/03/14 04:57:28;;;;;;;6.70;3.87;;;6.20;99.90;;;;;;4980449;28;20524;-81
2022/03/14 04:59:54;;;;;;;4.07;3.57;;;6.20;99.90;;;;;;4980679;28;20184;-81
2022/03/14 05:02:22;;;;;;;4.40;3.57;;;6.30;99.90;;;;;;4980265;28;20645;-81
2022/03/14 05:04:48;;;;;;;2.87;2.47;;;6.20;99.90;;;;;;4981959;28;20264;-84
2022/03/14 05:07:14;;;;;;;3.37;3.00;;;6.30;99.90;;;;;;4983425;28;20190;-82
2022/03/14 05:09:40;;;;;;;3.80;3.43;;;6.30;99.90;;;;;;4983056;28;20253;-82
2022/03/14 05:12:07;;;;;;;3.60;3.13;;;6.20;99.90;;;;;;4984845;28;20177;-82
2022/03/14 05:14:34;;;;;;;3.30;3.00;;;6.20;99.90;;;;;;4982961;28;20712;-82
2022/03/14 05:16:59;;;;;;;3.87;3.07;;;6.20;99.90;;;;;;4981718;28;20232;-82
2022/03/14 05:19:25;;;;;;;4.23;2.87;;;;;;;;;;4981547;28;20249;-82
2022/03/14 05:21:51;;;;;;;4.57;2.90;;;6.10;99.90;;;;;;4983051;28;20185;-82
2022/03/14 05:24:17;;;;;;;4.13;2.63;;;;;;;;;;4983111;28;20181;-82
2022/03/14 05:26:43;;;;;;;3.27;2.67;;;6.10;99.90;;;;;;4981838;28;20221;-82
2022/03/14 05:29:12;;;;;;;3.93;3.20;;;;;;;;;;4982779;28;20174;-81
2022/03/14 05:31:38;;;;;;;4.07;2.90;;;6.00;99.90;;;;;;4981067;28;20202;-81
2022/03/14 05:34:04;;;;;;;3.93;3.53;;;6.00;99.90;;;;;;4981617;28;20181;-81
2022/03/14 05:36:30;;;;;;;4.00;3.60;;;5.90;99.90;;;;;;4981058;28;20272;-81
2022/03/14 05:38:55;;;;;;;3.97;3.10;;;5.90;99.90;;;;;;4981182;28;20574;-81
2022/03/14 05:41:21;;;;;;;3.50;3.20;;;;;;;;;;4982206;28;20236;-81
2022/03/14 05:43:47;;;;;;;2.93;2.67;;;5.90;99.90;;;;;;4980539;28;20196;-83
2022/03/14 05:46:13;;;;;;;5.17;2.77;;;;;;;;;;4981100;28;20217;-82
2022/03/14 05:48:38;;;;;;;2.57;2.37;;;6.00;99.90;;;;;;4982697;28;20174;-82
2022/03/14 05:51:07;;;;;;;3.07;2.40;;;6.00;99.90;;;;;;4983399;28;20227;-82
2022/03/14 05:53:33;;;;;;;2.97;2.50;;;6.00;99.90;;;;;;4982633;28;20171;-82
2022/03/14 05:55:59;;;;;;;2.43;2.23;;;6.00;99.90;;;;;;4980879;28;20222;-82
2022/03/14 05:58:24;;;;;;;5.13;2.60;;;6.00;99.90;;;;;;4980844;28;20272;-82
2022/03/14 06:00:52;;;;;;;2.20;2.00;;;6.00;99.90;;;;;;4980662;28;20183;-82
2022/03/14 06:03:20;;;;;;;2.67;2.47;;;6.00;99.90;;;;;;4980158;28;20226;-82
2022/03/14 06:05:48;;;;;;;2.20;2.00;;;6.10;99.90;;;;;;4979082;28;20301;-81
2022/03/14 06:08:14;;;;;;;2.23;2.03;;;6.10;99.90;;;;;;4980827;28;20164;-82
2022/03/14 06:10:39;;;;;;;2.57;1.90;;;6.10;99.90;;;;;;4979103;28;20177;-79
2022/03/14 06:13:05;;;;;;;2.33;2.13;;;6.10;99.90;;;;;;4980145;28;20201;-80
2022/03/14 06:15:31;;;;;;;1.67;1.43;;;6.10;99.90;;;;;;4989487;28;20205;-79
2022/03/14 06:17:57;;;;;;;1.73;1.60;;;;;;;;;;4991901;28;20170;-79
2022/03/14 06:20:23;;;;;;;1.80;1.60;;;6.10;99.90;;;;;;4986638;28;20549;-80
2022/03/14 06:22:49;;;;;;;1.60;1.40;;;6.20;99.90;;;;;;4980923;28;20183;-81
2022/03/14 06:25:17;;;;;;;4.33;2.70;;;6.10;99.90;;;;;;4982686;28;20198;-80
2022/03/14 06:27:43;;;;;;;1.50;1.40;;;6.10;99.90;;;;;;4979184;28;20182;-81
2022/03/14 06:30:09;;;;;;;1.67;1.37;;;6.10;99.90;;;;;;4980561;28;20174;-81
2022/03/14 06:32:39;;;;;;;1.53;1.43;;;6.10;99.90;;;;;;4981507;28;20173;-81
2022/03/14 06:35:07;;;;;;;3.50;2.37;;;6.10;99.90;;;;;;4980370;28;20194;-80
2022/03/14 06:37:34;;;;;;;4.07;2.53;;;6.20;99.90;;;;;;4978776;28;20179;-81
2022/03/14 06:39:59;;;;;;;3.80;1.97;;;6.30;99.90;;;;;;4978667;28;20179;-80
2022/03/14 06:42:26;;;;;;;2.57;1.97;;;;;;;;;;4978881;28;20183;-82
2022/03/14 06:44:52;;;;;;;6.53;3.80;;;6.30;99.90;;;;;;4978085;28;20293;-81
2022/03/14 06:47:18;;;;;;;8.60;5.23;;;6.40;99.90;;;;;;4978902;28;20220;-80
2022/03/14 06:49:45;;;;;;;3.23;1.87;;;6.30;99.90;;;;;;4979248;28;20552;-81
2022/03/14 06:52:12;;;;;;;19.93;10.50;;;6.40;99.90;;;;;;4979961;28;20170;-80
2022/03/14 06:54:38;;;;;;;5.90;4.00;;;6.40;99.90;;;;;;4979572;28;20212;-81
2022/03/14 06:57:06;;;;;;;2.17;1.90;;;6.40;99.90;;;;;;4980167;28;20543;-81
2022/03/14 06:59:32;;;;;;;5.03;2.80;;;6.50;99.90;;;;;;4978123;28;20192;-80
2022/03/14 07:01:58;;;;;;;2.90;2.40;;;6.60;99.90;;;;;;4978156;28;20193;-81
2022/03/14 07:04:23;;;;;;;3.33;2.87;;;6.70;99.90;;;;;;4978297;28;20178;-81
2022/03/14 07:06:49;;;;;;;1.87;1.77;;;6.70;99.90;;;;;;4978673;28;20203;-81
2022/03/14 07:09:15;;;;;;;1.47;1.30;;;6.70;99.90;;;;;;4978959;28;20241;-80
2022/03/14 07:11:41;;;;;;;2.97;2.27;;;;;;;;;;4979213;28;20209;-80
2022/03/14 07:14:08;;;;;;;2.27;2.07;;;6.90;99.90;;;;;;4977664;28;20174;-80
2022/03/14 07:16:34;;;;;;;2.90;2.63;;;;;;;;;;4976942;28;20679;-80
2022/03/14 07:18:59;;;;;;;2.00;1.80;;;6.90;99.90;;;;;;4979913;28;20183;-80
2022/03/14 07:21:28;;;;;;;1.83;1.73;;;6.90;99.90;;;;;;4978253;28;20182;-80
2022/03/14 07:23:57;;;;;;;2.10;1.70;;;7.00;99.90;;;;;;4977277;28;20557;-80
2022/03/14 07:26:24;;;;;;;3.43;2.70;;;7.10;99.90;;;;;;4979243;28;20225;-80
2022/03/14 07:28:50;;;;;;;4.77;3.77;;;7.10;99.90;;;;;;4979575;28;20202;-80
2022/03/14 07:31:17;;;;;;;5.13;3.77;;;7.20;99.90;;;;;;4979659;28;20170;-80
2022/03/14 07:33:43;;;;;;;7.90;4.60;;;7.30;99.90;;;;;;4979215;28;20175;-80
2022/03/14 07:36:11;;;;;;;8.63;3.80;;;7.40;99.90;;;;;;4979690;28;20222;-80
2022/03/14 07:38:37;;;;;;;8.90;3.93;;;7.40;99.90;;;;;;4977647;28;20186;-80
2022/03/14 07:41:03;;;;;;;47.63;17.90;;;7.30;99.90;;;;;;4978391;28;20671;-80
2022/03/14 07:43:28;;;;;;;12.47;5.80;;;7.40;99.90;;;;;;4976964;28;20642;-80
2022/03/14 07:45:54;;;;;;;12.50;7.07;;;7.30;99.90;;;;;;4975839;28;20687;-80
2022/03/14 07:48:20;;;;;;;15.70;7.37;;;7.40;99.90;;;;;;4976658;28;20178;-80
2022/03/14 07:50:46;;;;;;;13.80;7.40;;;7.40;99.90;;;;;;4976129;28;20645;-80
2022/03/14 07:53:12;;;;;;;2.13;1.63;;;7.40;99.90;;;;;;4974684;28;20226;-80
2022/03/14 07:55:38;;;;;;;1.40;1.30;;;7.40;99.90;;;;;;4976927;28;20220;-80
2022/03/14 07:58:04;;;;;;;1.97;1.37;;;7.60;99.90;;;;;;4977436;28;20188;-81
2022/03/14 08:00:29;;;;;;;2.30;1.07;;;7.90;99.90;;;;;;4977215;28;20217;-80
2022/03/14 08:02:55;;;;;;;6.77;3.57;;;8.10;99.90;;;;;;4978574;28;20554;-80
2022/03/14 08:05:25;;;;;;;9.53;5.07;;;8.40;99.90;;;;;;4980256;28;20215;-81
2022/03/14 08:07:51;;;;;;;5.07;2.60;;;9.20;99.90;;;;;;4979761;28;20171;-81
2022/03/14 08:10:18;;;;;;;9.47;4.97;;;9.90;99.90;;;;;;4978740;28;20187;-82
2022/03/14 08:12:45;;;;;;;20.00;9.63;;;10.70;99.90;;;;;;4979488;28;20179;-80
2022/03/14 08:15:11;;;;;;;7.60;3.97;;;11.10;99.90;;;;;;4978361;28;20247;-80
2022/03/14 08:17:37;;;;;;;2.57;2.30;;;11.40;99.90;;;;;;4979732;28;20195;-81
2022/03/14 08:20:03;;;;;;;1.70;1.50;;;11.30;99.90;;;;;;4979048;28;20184;-81
2022/03/14 08:22:29;;;;;;;1.50;1.30;;;11.70;99.90;;;;;;4978419;28;20184;-81
2022/03/14 08:24:55;;;;;;;1.80;1.60;;;12.00;99.90;;;;;;4979545;28;20198;-81
2022/03/14 08:27:21;;;;;;;1.90;1.50;;;11.90;99.90;;;;;;4978252;28;20210;-81
2022/03/14 08:29:47;;;;;;;2.73;1.47;;;11.70;99.90;;;;;;4984908;28;20308;-81
2022/03/14 08:32:13;;;;;;;2.07;0.70;;;12.10;99.90;;;;;;4983203;28;20164;-80
2022/03/14 08:34:39;;;;;;;1.40;1.13;;;12.20;99.90;;;;;;4982803;28;20196;-83
2022/03/14 08:37:05;;;;;;;0.63;0.63;;;12.00;99.90;;;;;;4985198;28;20207;-83
2022/03/14 08:39:32;;;;;;;0.50;0.50;;;12.10;99.90;;;;;;4983664;28;20192;-83
2022/03/14 08:41:58;;;;;;;0.60;0.60;;;12.10;99.90;;;;;;4983737;28;20211;-82
2022/03/14 08:44:24;;;;;;;0.80;0.70;;;11.90;99.90;;;;;;4983584;28;20184;-81
2022/03/14 08:46:49;;;;;;;0.90;0.50;;;12.40;99.50;;;;;;4983323;28;20212;-82
2022/03/14 08:49:15;;;;;;;1.50;0.70;;;12.70;98.20;;;;;;4981621;28;20176;-82
2022/03/14 08:51:41;;;;;;;0.97;0.57;;;12.10;98.40;;;;;;4987722;28;20183;-80
2022/03/14 08:54:07;;;;;;;0.60;0.60;;;12.10;98.80;;;;;;4986384;28;20181;-81
2022/03/14 08:56:33;;;;;;;0.50;0.50;;;12.20;98.30;;;;;;4984363;28;20251;-81
2022/03/14 08:58:58;;;;;;;1.73;1.30;;;12.60;98.10;;;;;;4981789;28;20192;-81
2022/03/14 09:01:25;;;;;;;3.40;1.87;;;12.80;96.80;;;;;;4982065;28;20184;-82
2022/03/14 09:03:51;;;;;;;7.10;4.00;;;13.10;96.10;;;;;;4980698;28;20191;-81
2022/03/14 09:06:17;;;;;;;1.83;0.67;;;13.40;95.60;;;;;;4981580;28;20292;-82
2022/03/14 09:08:43;;;;;;;12.53;7.13;;;13.30;94.80;;;;;;4981685;28;20232;-81
2022/03/14 09:11:09;;;;;;;9.23;4.93;;;13.10;95.80;;;;;;4982010;28;20712;-81
2022/03/14 09:13:35;;;;;;;2.87;1.73;;;13.10;95.10;;;;;;4981750;28;20637;-81
2022/03/14 09:16:01;;;;;;;27.60;11.43;;;13.10;94.30;;;;;;4980822;28;20253;-82
2022/03/14 09:18:29;;;;;;;0.90;0.63;;;12.90;94.20;;;;;;4981628;28;20293;-82
2022/03/14 09:20:55;;;;;;;15.30;7.77;;;11.90;94.90;;;;;;4982165;28;20533;-82
2022/03/14 09:23:21;;;;;;;4.10;2.37;;;11.70;96.80;;;;;;4981635;28;20183;-82
2022/03/14 09:25:47;;;;;;;3.37;2.13;;;12.00;96.30;;;;;;4981359;28;20216;-82
2022/03/14 09:28:14;;;;;;;1.53;0.90;;;12.50;96.10;;;;;;4983159;28;20242;-82
2022/03/14 09:30:40;;;;;;;1.73;1.40;;;12.70;94.30;;;;;;4983244;28;20180;-81
2022/03/14 09:33:05;;;;;;;0.53;0.53;;;12.10;95.00;;;;;;4980666;28;20538;-81
2022/03/14 09:35:34;;;;;;;2.67;1.07;;;12.20;94.80;;;;;;4980937;28;20222;-81
2022/03/14 09:37:59;;;;;;;1.63;1.03;;;12.40;94.70;;;;;;4979433;28;20603;-81
2022/03/14 09:40:25;;;;;;;1.07;0.90;;;12.30;94.40;;;;;;4980620;28;20638;-81
2022/03/14 09:42:53;;;;;;;1.00;0.90;;;12.20;94.90;;;;;;4980237;28;20175;-81
2022/03/14 09:45:20;;;;;;;0.53;0.50;;;12.30;93.70;;;;;;4980590;28;20192;-82
2022/03/14 09:47:52;;;;;;;4.17;2.57;;;12.30;94.20;;;;;;4979432;28;20644;-82
2022/03/14 09:50:39;;;;;;;3.40;1.90;;;11.90;94.70;;;;;;4981114;28;20172;-81
2022/03/14 09:53:10;;;;;;;10.20;5.10;;;12.70;94.30;;;;;;4980379;28;20172;-82
2022/03/14 09:55:41;;;;;;;3.63;1.00;;;13.30;93.70;;;;;;4979937;28;20212;-82
2022/03/14 09:58:11;;;;;;;3.77;2.47;;;13.60;91.60;;;;;;4979889;28;20188;-81
2022/03/14 10:00:38;;;;;;;6.43;3.23;;;13.60;91.50;;;;;;4981446;28;20161;-81
2022/03/14 10:03:04;;;;;;;3.03;2.40;;;14.10;90.60;;;;;;4978516;28;20176;-81
2022/03/14 10:05:30;;;;;;;3.47;1.60;;;15.10;91.90;;;;;;4978445;28;20202;-81
2022/03/14 10:07:56;;;;;;;3.30;2.73;;;15.90;91.40;;;;;;4979133;28;20172;-81
2022/03/14 10:10:22;;;;;;;4.50;2.40;;;16.00;85.30;;;;;;4983403;28;20185;-82
2022/03/14 10:12:57;;;;;;;2.13;1.60;;;15.50;81.40;;;;;;4979909;28;20272;-81
2022/03/14 10:15:25;;;;;;;3.10;2.20;;;15.20;82.60;;;;;;4978560;28;20696;-81
2022/03/14 10:17:51;;;;;;;2.80;2.47;;;15.50;82.40;;;;;;4977982;28;20228;-81
2022/03/14 10:20:18;;;;;;;2.90;1.97;;;15.30;83.20;;;;;;4978011;28;20179;-82
2022/03/14 10:22:45;;;;;;;1.90;1.80;;;15.60;84.70;;;;;;4978749;28;20866;-81
2022/03/14 10:25:13;;;;;;;6.50;3.00;;;16.00;82.60;;;;;;4977818;28;20197;-82
2022/03/14 10:27:45;;;;;;;2.83;1.63;;;16.10;80.50;;;;;;4977527;28;20224;-83
2022/03/14 10:30:31;;;;;;;3.90;1.27;;;15.70;79.40;;;;;;4979040;28;20156;-83
2022/03/14 10:33:12;;;;;;;4.80;2.37;;;15.40;81.30;;;;;;4978354;28;20259;-81
2022/03/14 10:35:39;;;;;;;8.97;6.13;;;14.80;78.80;;;;;;4977071;28;20195;-81
2022/03/14 10:38:07;;;;;;;2.27;1.67;;;14.00;80.80;;;;;;4978215;28;20176;-81
2022/03/14 10:40:40;;;;;;;2.53;1.50;;;14.30;83.40;;;;;;4976705;28;20268;-82
2022/03/14 10:43:27;;;;;;;1.70;1.60;;;15.10;81.00;;;;;;4976087;28;20177;-82
2022/03/14 10:45:56;;;;;;;3.27;2.10;;;15.30;79.30;;;;;;4976503;28;20308;-82
2022/03/14 10:48:31;;;;;;;2.83;2.03;;;15.90;80.00;;;;;;4979539;28;20176;-82
2022/03/14 10:51:03;;;;;;;2.97;1.40;;;16.10;74.70;;;;;;4978771;28;20193;-81
2022/03/14 10:53:28;;;;;;;2.70;1.60;;;15.70;75.80;;;;;;4978742;28;20629;-82
2022/03/14 10:55:59;;;;;;;2.30;1.87;;;15.60;75.90;;;;;;4979044;28;20247;-81
2022/03/14 10:58:30;;;;;;;1.77;1.67;;;16.00;74.30;;;;;;4979731;28;20231;-82
2022/03/14 11:01:07;;;;;;;1.90;1.70;;;16.10;73.60;;;;;;4977947;28;20174;-82
2022/03/14 11:03:36;;;;;;;1.60;1.50;;;16.40;72.60;;;;;;4979814;28;20164;-83
2022/03/14 11:06:04;;;;;;;2.07;1.90;;;16.00;71.30;;;;;;4978998;28;20198;-82
2022/03/14 11:08:38;;;;;;;2.17;1.63;;;16.20;71.70;;;;;;4979308;28;20253;-79
2022/03/14 11:11:22;;;;;;;2.97;1.97;;;16.50;72.30;;;;;;4977583;28;20183;-82
2022/03/14 11:13:50;;;;;;;1.70;1.60;;;16.80;67.30;;;;;;4978489;28;20173;-80
2022/03/14 11:16:24;;;;;;;3.00;1.73;;;16.40;69.70;;;;;;4978711;28;20341;-82
2022/03/14 11:18:51;;;;;;;2.80;1.57;;;16.50;68.80;;;;;;4979704;28;20177;-81
2022/03/14 11:21:19;;;;;;;1.80;1.70;;;16.40;66.60;;;;;;4978899;28;20186;-81
2022/03/14 11:23:47;;;;;;;1.70;1.60;;;16.10;66.90;;;;;;4978683;28;20660;-81
2022/03/14 11:26:15;;;;;;;3.83;1.80;;;16.30;68.60;;;;;;4979390;28;20210;-81
2022/03/14 11:28:42;;;;;;;3.00;1.93;;;16.80;69.80;;;;;;4979162;28;20262;-81
2022/03/14 11:31:08;;;;;;;2.03;1.80;;;17.30;70.70;;;;;;4978043;28;20275;-81
2022/03/14 11:33:35;;;;;;;2.43;1.70;;;17.30;66.00;;;;;;4978502;28;20231;-81
2022/03/14 11:36:03;;;;;;;2.37;2.00;;;17.50;65.00;;;;;;4977644;28;20259;-81
2022/03/14 11:38:29;;;;;;;3.60;1.80;;;17.80;67.10;;;;;;4977076;28;20723;-81
2022/03/14 11:41:00;;;;;;;1.87;1.77;;;18.10;66.30;;;;;;4978222;28;20223;-82
2022/03/14 11:43:27;;;;;;;2.87;2.10;;;18.10;63.50;;;;;;4978385;28;20661;-82
2022/03/14 11:45:53;;;;;;;2.53;2.10;;;17.90;63.90;;;;;;4977259;28;20207;-81
2022/03/14 11:48:20;;;;;;;2.53;1.97;;;17.40;63.40;;;;;;4979450;28;20198;-81
2022/03/14 11:50:56;;;;;;;2.03;1.93;;;17.40;62.60;;;;;;4978617;28;20183;-81
2022/03/14 11:53:28;;;;;;;1.97;1.77;;;17.60;63.50;;;;;;4980052;28;20175;-82
2022/03/14 11:56:12;;;;;;;2.30;2.10;;;18.10;61.80;;;;;;4979201;28;20220;-82
2022/03/14 11:58:53;;;;;;;1.80;1.70;;;18.20;64.80;;;;;;4978318;28;20184;-81
2022/03/14 12:01:22;;;;;;;2.73;2.43;;;18.90;60.10;;;;;;4978709;28;20172;-81
2022/03/14 12:03:51;;;;;;;3.57;2.07;;;18.70;59.60;;;;;;4977583;28;20184;-81
2022/03/14 12:06:37;;;;;;;2.60;2.40;;;18.90;58.80;;;;;;4975671;28;20295;-80
2022/03/14 12:09:02;;;;;;;2.70;2.33;;;18.60;58.80;;;;;;4976518;28;20177;-81
2022/03/14 12:11:28;;;;;;;6.00;3.27;;;18.60;61.20;;;;;;4978459;28;20212;-81
2022/03/14 12:13:54;;;;;;;3.70;2.70;;;19.10;57.90;;;;;;4978792;28;20581;-81
2022/03/14 12:16:45;;;;;;;3.73;3.20;;;19.10;58.40;;;;;;4980050;28;20209;-81
2022/03/14 12:19:28;;;;;;;2.90;2.60;;;19.50;58.00;;;;;;4977813;28;20197;-80
2022/03/14 12:21:54;;;;;;;4.30;2.60;;;19.30;57.30;;;;;;4978417;28;20178;-81
2022/03/14 12:24:36;;;;;;;2.20;1.97;;;19.50;58.70;;;;;;4979600;28;20263;-81
2022/03/14 12:27:15;;;;;;;2.10;1.90;;;19.50;55.30;;;;;;4977725;28;20184;-81
2022/03/14 12:29:41;;;;;;;3.17;2.70;;;18.90;56.70;;;;;;4977031;28;20558;-80
2022/03/14 12:32:34;;;;;;;3.93;2.87;;;18.80;56.10;;;;;;4976168;28;20185;-80
2022/03/14 12:35:33;;;;;;;9.80;5.60;;;19.40;56.00;;;;;;4976353;28;20262;-79
2022/03/14 12:38:15;;;;;;;17.43;10.23;;;20.10;55.50;;;;;;4969700;28;20259;-80
2022/03/14 12:40:42;;;;;;;3.40;2.93;;;20.20;54.40;;;;;;4976866;28;20536;-79
2022/03/14 12:43:09;;;;;;;4.93;2.40;;;20.70;54.30;;;;;;4975930;28;20182;-80
2022/03/14 12:45:45;;;;;;;3.37;2.60;;;21.20;52.10;;;;;;4976397;28;20193;-79
2022/03/14 12:48:27;;;;;;;3.53;2.80;;;21.10;52.30;;;;;;4977830;28;20190;-80
2022/03/14 12:50:56;;;;;;;3.30;3.00;;;20.50;51.60;;;;;;4976178;28;20311;-80
2022/03/14 12:53:28;;;;;;;4.27;3.60;;;20.30;52.90;;;;;;4976881;28;20175;-79
2022/03/14 12:56:02;;;;;;;4.17;2.63;;;20.90;54.00;;;;;;4975932;28;20249;-80
2022/03/14 12:58:31;;;;;;;3.53;3.23;;;20.90;51.60;;;;;;4976235;28;20180;-79